Gardiner, OR (97441)

1:25 PM PST on December 26, 2014 (GMT -0800)
Hauser | Change Station
CLOSE
Current Station
Personal Weather Station
Location: North Bend, OR
Elevation: 128 ft
Nearby Weather Stations
Active Advisory: Flood Warning

Elev 128 ft 43.50 °N, 124.21 °W | Updated 2 seconds ago

Mostly Cloudy
Mostly Cloudy
54.5 °F
Feels Like 54.5 °F
N
0.2
Wind Variable Wind from South
Gusts 2.5 mph

Today
High -- | Low -- °F
--% Chance of Precip.
Yesterday
High -- | Low -- °F
Precip. -- in
7:49 AM 4:45 PM
Waxing Crescent, 29% visible
Pressure 30.33 in
Visibility 10.0 miles
Clouds Mostly Cloudy 4800 ft
Dew Point 35 °F
Humidity 48%
Rainfall 0.00 in
Snow Depth Not available.
UV 1 out of 12
Pollen 1.60 out of 12
Air Quality Not available.
Flu Activity Not available.
METAR KOTH 262115Z 00000KT 10SM BKN048 12/08 A3033 RMK AO1

More Conditions Fewer Conditions

Pressure 30.33 in
Visibility 10.0 miles
Clouds Mostly Cloudy 4800 ft
Dew Point 35 °F
Humidity 48%
Rainfall 0.00 in
Snow Depth Not available.
UV 1 out of 12
Pollen 1.60 out of 12
Air Quality Not available.
Flu Activity Not available.
METAR KOTH 262115Z 00000KT 10SM BKN048 12/08 A3033 RMK AO1

More Conditions Fewer Conditions

10-Day Weather Forecast

Almanac

Astronomy

Dec. 26, 2014 Rise Set
Actual Time
Civil Twilight
Nautical Twilight
Astronomical Twilight
Moon
Length of Visible Light
Length of Day
Tomorrow will be .
, % of the Moon is Illuminated

Today's Extremes

State Highs State Lows

Community

WunderPhotos

Upload Photos

1,780,718 photos uploaded!

WunderBlogs® & News

Nearby

Air Quality

  Air Quality AQ Index Pollutant
Not available.

Snow Depth

Station Depth Elevation

Earthquake Activity

City Distance Mag. Time & Date
Minimum magnitude displayed is 2.5.

Coastal Water Temperatures

Place Temperature

Nearby Weather Stations